createdAt,value
2022-09-26T00:01:41.832Z,99673.00
2022-09-26T00:04:24.087Z,99667.52
2022-09-26T00:06:55.934Z,99663.35
2022-09-26T00:09:26.055Z,99662.28
2022-09-26T00:11:54.943Z,99659.90
2022-09-26T00:14:26.621Z,99658.96
2022-09-26T00:16:55.146Z,99649.80
2022-09-26T00:19:23.516Z,99650.37
2022-09-26T00:21:51.940Z,99648.00
2022-09-26T00:24:20.225Z,99653.89
2022-09-26T00:26:48.001Z,99655.40
2022-09-26T00:29:16.236Z,99660.14
2022-09-26T00:31:47.601Z,99662.02
2022-09-26T00:34:18.256Z,99659.27
2022-09-26T00:36:46.301Z,99659.05
2022-09-26T00:39:16.678Z,99655.31
2022-09-26T00:41:45.941Z,99649.26
2022-09-26T00:44:56.832Z,99647.09
2022-09-26T00:47:27.235Z,99644.73
2022-09-26T00:50:04.570Z,99640.39
2022-09-26T00:52:45.164Z,99638.27
2022-09-26T00:55:18.877Z,99633.21
2022-09-26T00:57:53.290Z,99633.25
2022-09-26T01:00:21.475Z,99635.16
2022-09-26T01:02:52.517Z,99635.27
2022-09-26T01:05:23.350Z,99631.70
2022-09-26T01:07:52.745Z,99626.14
2022-09-26T01:10:21.105Z,99625.64
2022-09-26T01:12:49.097Z,99621.34
2022-09-26T01:15:17.170Z,99625.52
2022-09-26T01:17:45.957Z,99632.06
2022-09-26T01:20:36.556Z,99634.50
2022-09-26T01:23:42.106Z,99639.13
2022-09-26T01:26:12.936Z,99635.64
2022-09-26T01:28:42.343Z,99628.88
2022-09-26T01:32:16.708Z,99624.73
2022-09-26T01:35:07.350Z,99625.17
2022-09-26T01:37:49.058Z,99623.04
2022-09-26T01:40:45.931Z,99623.42
2022-09-26T01:43:34.353Z,99619.55
2022-09-26T01:46:26.402Z,99613.84
2022-09-26T01:49:02.443Z,99607.94
2022-09-26T01:51:41.285Z,99606.55
2022-09-26T01:54:17.922Z,99594.67
2022-09-26T01:56:50.617Z,99587.98
2022-09-26T01:59:29.052Z,99584.22
2022-09-26T02:02:06.703Z,99585.67
2022-09-26T02:04:41.383Z,99591.45
2022-09-26T02:07:16.839Z,99590.65
2022-09-26T02:09:52.009Z,99585.02
2022-09-26T02:12:26.424Z,99580.66
2022-09-26T02:14:58.359Z,99579.46
2022-09-26T02:17:31.609Z,99576.21
2022-09-26T02:20:05.558Z,99570.62
2022-09-26T02:22:35.432Z,99571.65
2022-09-26T02:25:04.731Z,99573.88
2022-09-26T02:27:33.225Z,99572.93
2022-09-26T02:30:01.782Z,99571.64
2022-09-26T02:32:32.035Z,99567.56
2022-09-26T02:35:01.335Z,99568.23
2022-09-26T02:37:31.229Z,99561.94
2022-09-26T02:40:01.144Z,99561.10
2022-09-26T02:42:36.730Z,99569.75
2022-09-26T02:45:27.020Z,99568.55
2022-09-26T02:48:08.235Z,99560.03
2022-09-26T02:50:48.516Z,99560.41
2022-09-26T02:53:38.401Z,99560.30
2022-09-26T02:56:46.244Z,99554.17
2022-09-26T02:59:26.788Z,99552.27
2022-09-26T03:02:06.388Z,99544.42
2022-09-26T03:04:34.564Z,99545.67
2022-09-26T03:07:07.400Z,99545.49
2022-09-26T03:09:37.279Z,99545.41
2022-09-26T03:12:08.253Z,99543.70
2022-09-26T03:14:42.229Z,99542.74
2022-09-26T03:17:10.749Z,99540.32
2022-09-26T03:19:45.952Z,99537.40
2022-09-26T03:22:16.393Z,99530.56
2022-09-26T03:24:46.161Z,99516.46
2022-09-26T03:27:16.689Z,99516.44
2022-09-26T03:29:46.480Z,99519.54
2022-09-26T03:32:19.529Z,99523.27
2022-09-26T03:34:47.421Z,99524.32
2022-09-26T03:37:16.242Z,99511.13
2022-09-26T03:39:44.968Z,99516.58
2022-09-26T03:42:24.582Z,99512.72
2022-09-26T03:44:53.896Z,99501.73
2022-09-26T03:47:44.447Z,99492.56
2022-09-26T03:50:15.090Z,99486.12
2022-09-26T03:52:43.196Z,99481.88
2022-09-26T03:55:11.672Z,99482.69
2022-09-26T03:57:39.744Z,99475.60
2022-09-26T04:00:17.853Z,99469.66
2022-09-26T04:02:46.646Z,99466.22
2022-09-26T04:05:23.111Z,99463.41
2022-09-26T04:07:51.036Z,99459.14
2022-09-26T04:10:19.685Z,99459.45
2022-09-26T04:12:47.588Z,99459.58
2022-09-26T04:15:16.007Z,99459.34
2022-09-26T04:17:44.588Z,99458.88
2022-09-26T04:20:12.864Z,99458.21
2022-09-26T04:22:42.045Z,99456.40
2022-09-26T04:25:10.542Z,99456.45
2022-09-26T04:27:39.035Z,99453.27
2022-09-26T04:30:07.554Z,99453.63
2022-09-26T04:32:39.749Z,99456.88
2022-09-26T04:35:27.296Z,99456.31
2022-09-26T04:37:55.267Z,99456.94
2022-09-26T04:40:23.400Z,99454.27
2022-09-26T04:43:11.407Z,99448.59
2022-09-26T04:45:43.379Z,99445.44
2022-09-26T04:48:11.798Z,99438.85
2022-09-26T04:50:46.132Z,99432.80
2022-09-26T04:53:14.106Z,99428.48
2022-09-26T04:56:10.340Z,99432.06
2022-09-26T04:58:38.885Z,99431.88
2022-09-26T05:01:09.891Z,99436.35
2022-09-26T05:03:49.700Z,99434.69
2022-09-26T05:06:18.941Z,99433.35
2022-09-26T05:08:47.789Z,99435.33
2022-09-26T05:11:18.635Z,99431.25
2022-09-26T05:13:51.250Z,99428.14
2022-09-26T05:16:21.699Z,99434.88
2022-09-26T05:18:52.098Z,99440.15
2022-09-26T05:21:24.279Z,99438.83
2022-09-26T05:24:11.120Z,99439.07
2022-09-26T05:26:46.558Z,99440.56
2022-09-26T05:29:26.309Z,99433.13
2022-09-26T05:31:59.993Z,99429.57
2022-09-26T05:34:28.661Z,99428.73
2022-09-26T05:36:56.791Z,99430.51
2022-09-26T05:39:43.416Z,99430.56
2022-09-26T05:42:15.555Z,99425.21
2022-09-26T05:44:44.080Z,99419.60
2022-09-26T05:47:13.247Z,99415.36
2022-09-26T05:49:41.823Z,99413.70
2022-09-26T05:52:12.220Z,99415.04
2022-09-26T05:54:40.345Z,99419.70
2022-09-26T05:57:28.376Z,99418.27
2022-09-26T05:59:58.263Z,99417.83
2022-09-26T06:02:26.326Z,99417.06
2022-09-26T06:05:06.283Z,99413.60
2022-09-26T06:07:53.307Z,99414.23
2022-09-26T06:10:40.361Z,99414.35
2022-09-26T06:13:08.387Z,99401.98
2022-09-26T06:15:55.249Z,99403.14
2022-09-26T06:18:23.269Z,99402.20
2022-09-26T06:20:51.445Z,99403.61
2022-09-26T06:23:19.641Z,99399.41
2022-09-26T06:25:49.223Z,99403.17
2022-09-26T06:28:18.543Z,99400.78
2022-09-26T06:30:46.899Z,99397.83
2022-09-26T06:33:27.638Z,99396.19
2022-09-26T06:36:18.171Z,99398.20
2022-09-26T06:38:46.667Z,99398.12
2022-09-26T06:41:17.912Z,99401.56
2022-09-26T06:43:47.747Z,99402.10
2022-09-26T06:46:47.507Z,99399.70
2022-09-26T06:49:19.899Z,99394.73
2022-09-26T06:51:50.012Z,99391.71
2022-09-26T06:54:19.003Z,99393.11
2022-09-26T06:56:47.839Z,99393.30
2022-09-26T06:59:17.531Z,99393.36
2022-09-26T07:01:53.280Z,99398.27
2022-09-26T07:04:40.923Z,99407.63
2022-09-26T07:07:20.825Z,99414.80
2022-09-26T07:09:48.999Z,99416.52
2022-09-26T07:12:40.887Z,99418.63
2022-09-26T07:15:09.313Z,99419.84
2022-09-26T07:17:37.481Z,99427.04
2022-09-26T07:20:37.876Z,99432.61
2022-09-26T07:23:24.412Z,99438.98
2022-09-26T07:25:53.168Z,99440.43
2022-09-26T07:28:21.374Z,99446.77
2022-09-26T07:30:50.978Z,99455.41
2022-09-26T07:33:40.348Z,99455.23
2022-09-26T07:36:12.730Z,99457.11
2022-09-26T07:38:42.851Z,99465.00
2022-09-26T07:41:11.439Z,99476.92
2022-09-26T07:44:34.633Z,99478.16
2022-09-26T07:46:50.245Z,99485.70
2022-09-26T07:49:37.599Z,99493.05
2022-09-26T07:52:32.232Z,99489.12
2022-09-26T07:55:28.230Z,99490.81
2022-09-26T07:58:02.114Z,99494.88
2022-09-26T08:00:56.297Z,99493.33
2022-09-26T08:03:48.162Z,99503.11
2022-09-26T08:06:38.725Z,99517.43
2022-09-26T08:09:08.117Z,99507.88
2022-09-26T08:11:56.065Z,99503.95
2022-09-26T08:14:42.978Z,99495.69
2022-09-26T08:17:28.454Z,99486.36
2022-09-26T08:19:56.991Z,99488.00
2022-09-26T08:22:25.016Z,99484.52
2022-09-26T08:24:55.533Z,99480.49
2022-09-26T08:27:44.287Z,99485.11
2022-09-26T08:30:13.679Z,99489.13
2022-09-26T08:32:42.125Z,99490.46
2022-09-26T08:35:14.911Z,99490.54
2022-09-26T08:38:07.395Z,99495.67
2022-09-26T08:41:13.133Z,99506.74
2022-09-26T08:43:56.484Z,99508.16
2022-09-26T08:47:02.866Z,99488.27
2022-09-26T08:50:20.927Z,99456.16
2022-09-26T08:53:05.757Z,99452.93
2022-09-26T08:55:44.565Z,99456.95
2022-09-26T08:58:28.934Z,99467.50
2022-09-26T09:01:05.234Z,99476.49
2022-09-26T09:03:53.789Z,99488.80
2022-09-26T09:06:21.836Z,99483.37
2022-09-26T09:08:56.436Z,99459.76
2022-09-26T09:12:09.259Z,99425.32
2022-09-26T09:15:20.428Z,99432.39
2022-09-26T09:18:45.108Z,99443.79
2022-09-26T09:22:14.900Z,99434.84
2022-09-26T09:25:04.945Z,99409.30
2022-09-26T09:28:07.917Z,99411.58
2022-09-26T09:30:38.567Z,99415.59
2022-09-26T09:33:29.696Z,99420.61
2022-09-26T09:36:21.197Z,99420.59
2022-09-26T09:39:41.431Z,99393.31
2022-09-26T09:42:26.132Z,99368.52
2022-09-26T09:45:22.387Z,99386.88
2022-09-26T09:47:50.516Z,99387.27
2022-09-26T09:50:42.688Z,99370.47
2022-09-26T09:53:24.797Z,99353.23
2022-09-26T09:56:22.353Z,99354.27
2022-09-26T09:59:17.557Z,99381.40
2022-09-26T10:02:48.177Z,99399.53
2022-09-26T10:05:45.042Z,99408.20
2022-09-26T10:08:28.668Z,99415.67
2022-09-26T10:11:23.114Z,99411.91
2022-09-26T10:14:03.411Z,99414.58
2022-09-26T10:17:09.651Z,99407.49
2022-09-26T10:20:53.809Z,99409.77
2022-09-26T10:23:27.689Z,99414.33
2022-09-26T10:26:03.496Z,99417.48
2022-09-26T10:28:37.700Z,99417.64
2022-09-26T10:31:11.278Z,99420.41
2022-09-26T10:34:04.253Z,99432.05
2022-09-26T10:36:38.101Z,99445.89
2022-09-26T10:39:34.306Z,99441.53
2022-09-26T10:42:04.255Z,99433.30
2022-09-26T10:44:34.852Z,99430.50
2022-09-26T10:47:08.738Z,99423.92
2022-09-26T10:49:59.229Z,99421.06
2022-09-26T10:53:09.635Z,99423.80
2022-09-26T10:56:06.566Z,99425.42
2022-09-26T10:58:41.973Z,99427.23
2022-09-26T11:01:21.186Z,99429.73
2022-09-26T11:03:50.468Z,99425.26
2022-09-26T11:06:34.591Z,99417.80
2022-09-26T11:09:18.243Z,99423.02
2022-09-26T11:11:48.004Z,99421.09
2022-09-26T11:14:28.460Z,99410.49
2022-09-26T11:17:03.634Z,99399.60
2022-09-26T11:19:42.757Z,99408.13
2022-09-26T11:22:16.368Z,99408.09
2022-09-26T11:25:11.778Z,99405.69
2022-09-26T11:27:46.838Z,99411.06
2022-09-26T11:30:21.750Z,99411.84
2022-09-26T11:33:12.268Z,99399.33
2022-09-26T11:36:18.191Z,99391.30
2022-09-26T11:38:50.896Z,99381.33
2022-09-26T11:41:36.583Z,99390.92
2022-09-26T11:44:17.572Z,99395.63
2022-09-26T11:47:10.084Z,99385.27
2022-09-26T11:49:59.423Z,99374.59
2022-09-26T11:53:19.800Z,99376.51
2022-09-26T11:56:10.250Z,99378.05
2022-09-26T11:58:59.334Z,99380.30
2022-09-26T12:01:39.109Z,99381.46
2022-09-26T12:04:34.661Z,99380.63
2022-09-26T12:07:20.834Z,99379.13
2022-09-26T12:10:26.446Z,99374.92
2022-09-26T12:13:03.461Z,99372.05
2022-09-26T12:15:44.057Z,99371.18
2022-09-26T12:18:22.525Z,99369.86
2022-09-26T12:20:50.494Z,99364.50
2022-09-26T12:23:36.731Z,99362.64
2022-09-26T12:26:17.849Z,99358.59
2022-09-26T12:29:00.194Z,99356.63
2022-09-26T12:31:48.977Z,99357.61
2022-09-26T12:34:28.952Z,99358.94
2022-09-26T12:37:19.013Z,99352.49
2022-09-26T12:40:09.461Z,99345.81
2022-09-26T12:42:40.648Z,99343.12
2022-09-26T12:45:27.046Z,99334.94
2022-09-26T12:48:00.534Z,99321.48
2022-09-26T12:51:16.502Z,99317.77
2022-09-26T12:54:09.200Z,99321.95
2022-09-26T12:56:59.067Z,99323.20
2022-09-26T12:59:52.840Z,99326.09
2022-09-26T13:02:23.708Z,99333.19
2022-09-26T13:05:16.941Z,99328.61
2022-09-26T13:07:48.070Z,99324.23
2022-09-26T13:10:35.017Z,99324.20
2022-09-26T13:13:11.695Z,99318.69
2022-09-26T13:16:13.429Z,99304.69
2022-09-26T13:18:47.568Z,99304.88
2022-09-26T13:21:24.913Z,99310.61
2022-09-26T13:24:00.375Z,99307.33
2022-09-26T13:26:43.908Z,99304.58
2022-09-26T13:29:27.131Z,99287.70
2022-09-26T13:32:22.956Z,99279.98
2022-09-26T13:35:02.086Z,99291.50
2022-09-26T13:37:41.418Z,99293.17
2022-09-26T13:40:37.130Z,99298.89
2022-09-26T13:43:35.522Z,99299.73
2022-09-26T13:46:31.926Z,99294.86
2022-09-26T13:49:27.952Z,99294.70
2022-09-26T13:52:34.453Z,99294.93
2022-09-26T13:55:20.029Z,99291.52
2022-09-26T13:57:49.962Z,99292.45
2022-09-26T14:00:17.918Z,99301.82
2022-09-26T14:03:11.128Z,99303.48
2022-09-26T14:05:42.225Z,99304.63
2022-09-26T14:08:43.870Z,99302.24
2022-09-26T14:11:32.636Z,99295.36
2022-09-26T14:14:26.510Z,99289.03
2022-09-26T14:17:03.049Z,99289.65
2022-09-26T14:19:41.359Z,99289.20
2022-09-26T14:22:21.548Z,99280.64
2022-09-26T14:24:53.815Z,99273.39
2022-09-26T14:27:42.241Z,99272.26
2022-09-26T14:30:30.311Z,99279.82
2022-09-26T14:33:02.672Z,99281.45
2022-09-26T14:35:33.822Z,99280.38
2022-09-26T14:38:17.306Z,99282.30
2022-09-26T14:40:57.999Z,99288.92
2022-09-26T14:43:30.420Z,99289.06
2022-09-26T14:46:05.914Z,99280.35
2022-09-26T14:48:40.303Z,99277.09
2022-09-26T14:51:11.290Z,99272.39
2022-09-26T14:53:53.239Z,99264.27
2022-09-26T14:56:30.064Z,99261.33
2022-09-26T14:59:35.632Z,99256.48
2022-09-26T15:02:31.719Z,99256.67
2022-09-26T15:05:11.587Z,99257.13
2022-09-26T15:07:49.229Z,99257.27
2022-09-26T15:10:21.968Z,99264.20
2022-09-26T15:13:11.024Z,99265.18
2022-09-26T15:15:44.744Z,99266.21
2022-09-26T15:18:38.918Z,99261.73
2022-09-26T15:21:18.861Z,99262.63
2022-09-26T15:23:53.264Z,99255.73
2022-09-26T15:26:28.525Z,99250.73
2022-09-26T15:28:58.406Z,99246.79
2022-09-26T15:31:36.876Z,99245.19
2022-09-26T15:34:19.239Z,99242.34
2022-09-26T15:36:56.623Z,99241.84
2022-09-26T15:39:31.060Z,99241.01
2022-09-26T15:42:20.535Z,99239.42
2022-09-26T15:44:59.665Z,99239.84
2022-09-26T15:47:31.736Z,99243.68
2022-09-26T15:50:10.786Z,99241.97
2022-09-26T15:52:51.288Z,99238.76
2022-09-26T15:55:27.095Z,99232.14
2022-09-26T15:57:59.270Z,99235.48
2022-09-26T16:00:34.039Z,99234.84
2022-09-26T16:03:19.986Z,99232.94
2022-09-26T16:05:49.464Z,99239.30
2022-09-26T16:08:24.635Z,99242.80
2022-09-26T16:10:57.424Z,99236.95
2022-09-26T16:13:30.621Z,99231.70
2022-09-26T16:16:21.618Z,99229.58
2022-09-26T16:18:56.069Z,99228.06
2022-09-26T16:21:27.517Z,99234.88
2022-09-26T16:23:58.274Z,99236.97
2022-09-26T16:26:38.133Z,99233.38
2022-09-26T16:29:08.501Z,99221.77
2022-09-26T16:31:48.933Z,99218.59
2022-09-26T16:34:23.179Z,99215.27
2022-09-26T16:36:51.331Z,99215.12
2022-09-26T16:39:31.054Z,99215.98
2022-09-26T16:42:06.096Z,99208.03
2022-09-26T16:44:41.175Z,99207.02
2022-09-26T16:47:29.971Z,99201.42
2022-09-26T16:50:30.486Z,99203.48
2022-09-26T16:52:59.562Z,99203.00
2022-09-26T16:55:27.928Z,99200.93
2022-09-26T16:58:04.347Z,99197.11
2022-09-26T17:00:53.524Z,99204.40
2022-09-26T17:03:31.318Z,99207.23
2022-09-26T17:06:00.417Z,99212.36
2022-09-26T17:08:28.784Z,99215.98
2022-09-26T17:11:02.831Z,99221.80
2022-09-26T17:13:34.074Z,99222.45
2022-09-26T17:16:03.791Z,99227.41
2022-09-26T17:18:33.847Z,99229.81
2022-09-26T17:21:02.575Z,99227.04
2022-09-26T17:23:40.471Z,99225.52
2022-09-26T17:26:23.936Z,99224.42
2022-09-26T17:28:53.484Z,99221.42
2022-09-26T17:31:21.602Z,99218.64
2022-09-26T17:33:53.478Z,99221.79
2022-09-26T17:36:24.681Z,99228.15
2022-09-26T17:38:53.709Z,99231.35
2022-09-26T17:41:23.166Z,99230.66
2022-09-26T17:44:00.508Z,99227.16
2022-09-26T17:46:29.079Z,99221.66
2022-09-26T17:48:57.310Z,99215.24
2022-09-26T17:51:26.000Z,99215.27
2022-09-26T17:53:57.595Z,99217.00
2022-09-26T17:56:26.656Z,99211.78
2022-09-26T17:58:57.036Z,99214.85
2022-09-26T18:01:27.052Z,99216.02
2022-09-26T18:04:00.040Z,99222.88
2022-09-26T18:06:32.841Z,99217.36
2022-09-26T18:09:07.552Z,99212.52
2022-09-26T18:11:37.412Z,99211.34
2022-09-26T18:14:06.909Z,99211.71
2022-09-26T18:16:35.371Z,99213.46
2022-09-26T18:19:07.409Z,99216.02
2022-09-26T18:21:36.446Z,99213.52
2022-09-26T18:24:10.416Z,99215.66
2022-09-26T18:26:47.436Z,99213.98
2022-09-26T18:29:30.047Z,99215.41
2022-09-26T18:31:59.539Z,99214.81
2022-09-26T18:34:27.921Z,99211.06
2022-09-26T18:37:00.620Z,99209.08
2022-09-26T18:39:30.615Z,99209.67
2022-09-26T18:42:02.607Z,99205.17
2022-09-26T18:44:35.309Z,99203.70
2022-09-26T18:47:16.334Z,99202.30
2022-09-26T18:49:46.952Z,99196.95
2022-09-26T18:52:17.906Z,99195.39
2022-09-26T18:54:46.086Z,99193.29
2022-09-26T18:57:49.676Z,99197.98
2022-09-26T19:00:17.776Z,99200.04
2022-09-26T19:02:45.931Z,99201.38
2022-09-26T19:05:16.652Z,99204.81
2022-09-26T19:07:45.065Z,99204.76
2022-09-26T19:10:17.618Z,99200.91
2022-09-26T19:12:45.882Z,99194.42
2022-09-26T19:15:15.837Z,99190.09
2022-09-26T19:17:43.665Z,99182.33
2022-09-26T19:20:11.642Z,99179.70
2022-09-26T19:22:39.624Z,99184.35
2022-09-26T19:25:10.091Z,99185.95
2022-09-26T19:27:50.439Z,99185.81
2022-09-26T19:30:24.599Z,99182.90
2022-09-26T19:32:54.447Z,99184.64
2022-09-26T19:35:32.097Z,99182.41
2022-09-26T19:38:02.143Z,99178.85
2022-09-26T19:40:30.290Z,99177.07
2022-09-26T19:42:58.982Z,99175.47
2022-09-26T19:45:27.114Z,99178.41
2022-09-26T19:47:56.355Z,99181.41
2022-09-26T19:50:26.581Z,99178.38
2022-09-26T19:52:58.543Z,99174.41
2022-09-26T19:55:30.479Z,99172.75
2022-09-26T19:58:21.813Z,99172.30
2022-09-26T20:00:56.544Z,99173.88
2022-09-26T20:03:40.023Z,99175.77
2022-09-26T20:06:23.636Z,99181.60
2022-09-26T20:08:59.068Z,99180.23
2022-09-26T20:11:29.685Z,99180.27
2022-09-26T20:14:16.555Z,99175.75
2022-09-26T20:16:44.797Z,99168.93
2022-09-26T20:19:21.813Z,99167.27
2022-09-26T20:21:49.924Z,99169.94
2022-09-26T20:24:19.161Z,99167.98
2022-09-26T20:26:48.288Z,99168.29
2022-09-26T20:29:17.318Z,99173.48
2022-09-26T20:31:47.627Z,99176.25
2022-09-26T20:34:17.169Z,99179.21
2022-09-26T20:36:48.992Z,99181.13
2022-09-26T20:39:24.044Z,99180.71
2022-09-26T20:41:52.877Z,99184.48
2022-09-26T20:44:28.025Z,99192.31
2022-09-26T20:47:04.769Z,99194.17
2022-09-26T20:49:43.508Z,99184.34
2022-09-26T20:52:20.818Z,99180.73
2022-09-26T20:54:49.203Z,99182.42
2022-09-26T20:57:17.730Z,99174.08
2022-09-26T20:59:48.454Z,99172.95
2022-09-26T21:02:28.913Z,99178.67
2022-09-26T21:05:00.332Z,99181.70
2022-09-26T21:07:31.311Z,99180.47
2022-09-26T21:09:59.115Z,99174.51
2022-09-26T21:12:27.323Z,99175.80
2022-09-26T21:14:55.288Z,99174.27
2022-09-26T21:17:28.149Z,99175.50
2022-09-26T21:19:56.550Z,99169.21
2022-09-26T21:22:43.564Z,99169.75
2022-09-26T21:25:16.039Z,99173.15
2022-09-26T21:27:51.180Z,99169.16
2022-09-26T21:30:20.119Z,99165.48
2022-09-26T21:32:51.625Z,99157.86
2022-09-26T21:35:20.954Z,99150.94
2022-09-26T21:37:54.882Z,99146.95
2022-09-26T21:40:26.350Z,99151.43
2022-09-26T21:43:04.282Z,99150.05
2022-09-26T21:45:32.861Z,99146.94
2022-09-26T21:48:01.034Z,99143.13
2022-09-26T21:50:29.550Z,99140.37
2022-09-26T21:53:05.368Z,99141.35
2022-09-26T21:55:37.298Z,99141.59
2022-09-26T21:58:09.706Z,99143.99
2022-09-26T22:00:37.880Z,99144.33
2022-09-26T22:03:07.124Z,99132.13
2022-09-26T22:05:35.252Z,99125.46
2022-09-26T22:08:03.878Z,99122.13
2022-09-26T22:10:32.114Z,99115.67
2022-09-26T22:12:59.947Z,99118.23
2022-09-26T22:15:27.858Z,99125.67
2022-09-26T22:17:55.815Z,99121.45
2022-09-26T22:20:24.086Z,99118.59
2022-09-26T22:22:52.157Z,99123.63
2022-09-26T22:25:20.154Z,99129.31
2022-09-26T22:27:48.193Z,99130.70
2022-09-26T22:30:16.263Z,99130.59
2022-09-26T22:32:44.424Z,99116.54
2022-09-26T22:35:12.305Z,99106.41
2022-09-26T22:37:40.325Z,99107.20
2022-09-26T22:40:09.059Z,99105.69
2022-09-26T22:42:37.465Z,99106.02
2022-09-26T22:45:06.022Z,99104.48
2022-09-26T22:47:34.400Z,99100.82
2022-09-26T22:50:02.577Z,99099.66
2022-09-26T22:52:30.647Z,99100.34
2022-09-26T22:54:58.723Z,99098.89
2022-09-26T22:57:26.810Z,99094.01
2022-09-26T22:59:54.674Z,99092.82
2022-09-26T23:02:22.623Z,99092.98
2022-09-26T23:04:50.963Z,99095.83
2022-09-26T23:07:20.095Z,99094.98
2022-09-26T23:09:48.059Z,99094.14
2022-09-26T23:12:16.114Z,99096.24
2022-09-26T23:14:44.305Z,99092.83
2022-09-26T23:17:12.618Z,99089.85
2022-09-26T23:19:41.442Z,99086.46
2022-09-26T23:22:09.336Z,99085.36
2022-09-26T23:24:37.721Z,99083.59
2022-09-26T23:27:05.590Z,99081.64
2022-09-26T23:29:33.551Z,99079.13
2022-09-26T23:32:01.649Z,99082.13
2022-09-26T23:34:29.794Z,99077.03
2022-09-26T23:36:57.788Z,99070.39
2022-09-26T23:39:25.729Z,99067.67
2022-09-26T23:41:53.980Z,99066.89
2022-09-26T23:44:22.174Z,99061.61
2022-09-26T23:46:50.102Z,99061.67
2022-09-26T23:49:18.117Z,99063.13
2022-09-26T23:51:47.825Z,99061.35
2022-09-26T23:54:15.899Z,99056.32
2022-09-26T23:56:43.969Z,99051.77
2022-09-26T23:59:11.888Z,99052.78
